Airfield :
LOGIN :

Register | Disclaimer

   EN    FR    IT 

 










Legend :    VFR   Marginal VFR   IFR   Intensive IFR   Very Intensive IFR
Visi :
Ceiling :
>= 8 km
>= 3000ft
5 to 8 km
1000 to 3000 ft
1500m to 5 km
500 to 1000 ft
800 to 1500m
200 to 500 ft
< 800m
< 200 ft
Symbols :   Thunderstorms  Fog  Heavy snow  Heavy precipitations  Wind > 20 kt
SIGMETs :     Misc.  Thunderstorms  Icing  Turbulence  Mountain Waves  Volcanic Ashes






- Airport Elevation : 1106 ft


LFSO - Nancy / Ochey

CURRENT METAR :
  • 192230Z AUTO 32002KT 5000 BR NSC M01/M02 Q1018 BECMG 0200 FZFG VV///

EXPIRED METARs :
  • 192200Z AUTO 00000KT 7000 NSC M02/M03 Q1018 TEMPO 0500 FZFG
  • 192130Z AUTO 10003KT 8000 NSC M01/M02 Q1018 TEMPO 0500 FZFG
  • 192100Z AUTO 01001KT 7000 NSC M01/M01 Q1018 TEMPO 0500 FZFG
  • 192030Z AUTO 08002KT CAVOK 00/M01 Q1018 TEMPO 0500 FZFG
  • 192000Z AUTO 09004KT 8000 NSC M01/M01 Q1018 TEMPO 0500 FZFG

TAF TAF LFSO
Valid from the 19 at 21:00 until the 20 at 21:00 UTC


192000Z 1921/2021 03003KT 6000 NSC
TEMPO 1921/1924 3000 BR
PROB40
TEMPO 1921/1924 0500 FZFG
BECMG 2000/2003 0200 FZFG VV///
BECMG 2008/2011 4000 BR BKN005
TEMPO 2012/2016 8000 NSW BKN010
BECMG 2017/2020 0500 FZFG VV///



MET'MAP, your aeronautical weather chart ! - Copyright ORBIFLY December 2007 - Disclaimer

ORBIFLY MET'MAP TEAM :

Programming & Development : Alexandra Zaïnal
Concept & Development : Baudouin d'Aumeries
Co-Development & Prog : Marc-Olivier Méhu
Technical & hardware support : Manuel Goepfert

Contact : metmap@orbifly.com




SOURCES & CREDITS :

   NOAA